Overview Statistics Trail Chart Weather Telemetry Raw packets
 

This is the latest recevied weather packets stored in our database for station/object KY0TEQ-13. If no packets are shown the sender has not sent any weather packets the latest 10 day(s).

<< 75 76 77 78 79 80 81 >>
Time Temp. Humidity Pressure Rain* Wind** Luminosity Snow
1788147710 16.11° C 61% 1310.7 hPa 0 mm - 0 W/m² -
1788147406 16.11° C 62% 1310.8 hPa 0 mm - 0 W/m² -
1788147100 16.11° C 62% 1310.6 hPa 0 mm - 0 W/m² -
1788146800 16.11° C 64% 1310.5 hPa 0 mm - 0 W/m² -
1788146496 16.11° C 65% 1310.6 hPa 0 mm - 0 W/m² -
1788146191 15.56° C 65% 1310.6 hPa 0 mm - 0 W/m² -
1788145890 15.56° C 68% 1310.6 hPa 0 mm - 0 W/m² -
1788145589 15.56° C 68% 1310.1 hPa 0 mm - 0 W/m² -
1788145288 15.56° C 69% 1310.1 hPa 0 mm - 0 W/m² -
1788144987 15.56° C 70% 1310 hPa 0 mm - 0 W/m² -
1788144682 15.56° C 71% 1310 hPa 0 mm - 0 W/m² -
1788144378 16.11° C 70% 1310.2 hPa 0 mm - 0 W/m² -
1788144076 15.56° C 71% 1309.9 hPa 0 mm - 0 W/m² -
1788143775 15.56° C 74% 1309.4 hPa 1.27 mm - 0 W/m² -
1788143474 16.11° C 74% 1309.7 hPa 1.27 mm - 0 W/m² -
1788143169 17.22° C 69% 1310 hPa 0 mm - 0 W/m² -
1788142864 18.33° C 57% 1310.5 hPa 0 mm - 0 W/m² -
1788142563 18.89° C 55% 1310 hPa 0 mm - 0 W/m² -
1788142259 18.33° C 52% 1309.4 hPa 0 mm - 0 W/m² -
1788141954 17.78° C 53% 1308.6 hPa 0 mm - 0 W/m² -
1788141649 18.33° C 55% 1308.2 hPa 0 mm - 0 W/m² -
1788141344 18.33° C 49% 1307.8 hPa 0 mm - 0 W/m² -
1788141039 20° C 45% 1308.2 hPa 0 mm - 0 W/m² -
1788140734 20° C 45% 1308.6 hPa 0 mm - 0 W/m² -
1788140430 20° C 44% 1308.3 hPa 0 mm - 0 W/m² -

* Rain latest hour (hover to see other rain measurements)
** Current wind speed in m/s (hover to see current wind gust speed)